Time,TemperatureF,DewpointF,PressureIn,WindDirection,WindDirectionDegrees,WindSpeedMPH,WindSpeedGustMPH,Humidity,HourlyPrecipIn,Conditions,Clouds,dailyrainin,SoftwareType,DateUTC
2013-04-01 00:00:00,43.5,41.5,29.44,North,-999,-999.0,-999.0,90,-99.99,,,-99.99,Homeseer,2013-04-01 04:00:00,
2013-04-01 00:03:00,43.6,41.6,29.44,North,-999,-999.0,-999.0,90,-99.99,,,-99.99,Homeseer,2013-04-01 04:03:00,
2013-04-01 00:06:00,43.5,41.7,29.44,North,-999,-999.0,-999.0,91,-99.99,,,-99.99,Homeseer,2013-04-01 04:06:00,
2013-04-01 00:07:00,43.5,41.5,29.43,North,-999,-999.0,-999.0,90,-99.99,,,-99.99,Homeseer,2013-04-01 04:07:00,
2013-04-01 00:12:00,43.5,42.1,29.43,North,-999,-999.0,-999.0,93,-99.99,,,-99.99,Homeseer,2013-04-01 04:12:00,
2013-04-01 00:18:00,43.5,41.5,29.43,North,-999,-999.0,-999.0,90,-99.99,,,-99.99,Homeseer,2013-04-01 04:18:00,
2013-04-01 00:23:00,43.4,41.4,29.43,North,-999,-999.0,-999.0,90,-99.99,,,-99.99,Homeseer,2013-04-01 04:23:00,
2013-04-01 00:28:00,43.3,41.9,29.42,North,-999,-999.0,-999.0,93,-99.99,,,-99.99,Homeseer,2013-04-01 04:28:00,
2013-04-01 00:33:00,43.4,42.0,29.41,North,-999,-999.0,-999.0,93,-99.99,,,-99.99,Homeseer,2013-04-01 04:33:00,
2013-04-01 00:38:00,43.5,41.9,29.41,North,-999,-999.0,-999.0,92,-99.99,,,-99.99,Homeseer,2013-04-01 04:38:00,
2013-04-01 00:43:00,43.4,41.8,29.40,North,-999,-999.0,-999.0,92,-99.99,,,-99.99,Homeseer,2013-04-01 04:43:00,
2013-04-01 00:48:00,43.3,41.9,29.39,North,-999,-999.0,-999.0,93,-99.99,,,-99.99,Homeseer,2013-04-01 04:48:00,
2013-04-01 00:53:00,43.1,41.7,29.37,North,-999,-999.0,-999.0,93,-99.99,,,-99.99,Homeseer,2013-04-01 04:53:00,
2013-04-01 00:58:00,42.8,41.6,29.37,North,-999,-999.0,-999.0,94,-99.99,,,-99.99,Homeseer,2013-04-01 04:58:00,
2013-04-01 01:03:00,42.6,41.4,29.36,North,-999,-999.0,-999.0,94,-99.99,,,-99.99,Homeseer,2013-04-01 05:03:00,
2013-04-01 01:08:00,42.4,41.2,29.35,North,-999,-999.0,-999.0,94,-99.99,,,-99.99,Homeseer,2013-04-01 05:08:00,
2013-04-01 01:13:00,42.6,41.4,29.35,North,-999,-999.0,-999.0,94,-99.99,,,-99.99,Homeseer,2013-04-01 05:13:00,
2013-04-01 01:18:00,42.7,41.7,29.35,North,-999,-999.0,-999.0,95,-99.99,,,-99.99,Homeseer,2013-04-01 05:18:00,
2013-04-01 01:23:00,42.7,41.7,29.34,North,-999,-999.0,-999.0,95,-99.99,,,-99.99,Homeseer,2013-04-01 05:23:00,
2013-04-01 01:28:00,42.5,41.3,29.33,North,-999,-999.0,-999.0,94,-99.99,,,-99.99,Homeseer,2013-04-01 05:28:00,
2013-04-01 01:33:00,42.7,41.7,29.32,North,-999,-999.0,-999.0,95,-99.99,,,-99.99,Homeseer,2013-04-01 05:33:00,
2013-04-01 01:38:00,42.8,41.8,29.32,North,-999,-999.0,-999.0,95,-99.99,,,-99.99,Homeseer,2013-04-01 05:38:00,
2013-04-01 01:43:00,42.8,41.8,29.32,North,-999,-999.0,-999.0,95,-99.99,,,-99.99,Homeseer,2013-04-01 05:43:00,
2013-04-01 01:48:00,42.6,41.6,29.31,North,-999,-999.0,-999.0,95,-99.99,,,-99.99,Homeseer,2013-04-01 05:48:00,
2013-04-01 01:53:00,42.6,41.6,29.30,North,-999,-999.0,-999.0,95,-99.99,,,-99.99,Homeseer,2013-04-01 05:53:00,
2013-04-01 01:58:00,41.9,40.9,29.29,North,-999,-999.0,-999.0,95,-99.99,,,-99.99,Homeseer,2013-04-01 05:58:00,
2013-04-01 02:03:00,42.4,41.6,29.28,North,-999,-999.0,-999.0,96,-99.99,,,-99.99,Homeseer,2013-04-01 06:03:00,
2013-04-01 02:08:00,42.6,41.8,29.27,North,-999,-999.0,-999.0,96,-99.99,,,-99.99,Homeseer,2013-04-01 06:08:00,
2013-04-01 02:13:00,42.6,41.8,29.27,North,-999,-999.0,-999.0,96,-99.99,,,-99.99,Homeseer,2013-04-01 06:13:00,
2013-04-01 02:18:00,42.5,41.7,29.26,North,-999,-999.0,-999.0,96,-99.99,,,-99.99,Homeseer,2013-04-01 06:18:00,
2013-04-01 02:23:00,42.7,41.9,29.26,North,-999,-999.0,-999.0,96,-99.99,,,-99.99,Homeseer,2013-04-01 06:23:00,
2013-04-01 02:28:00,42.7,41.9,29.26,North,-999,-999.0,-999.0,96,-99.99,,,-99.99,Homeseer,2013-04-01 06:28:00,
2013-04-01 02:34:00,43.0,42.2,29.25,North,-999,-999.0,-999.0,96,-99.99,,,-99.99,Homeseer,2013-04-01 06:34:00,
2013-04-01 02:39:00,43.0,42.2,29.25,North,-999,-999.0,-999.0,96,-99.99,,,-99.99,Homeseer,2013-04-01 06:39:00,
2013-04-01 02:44:00,43.0,42.2,29.24,North,-999,-999.0,-999.0,96,-99.99,,,-99.99,Homeseer,2013-04-01 06:44:00,
2013-04-01 02:49:00,43.0,42.2,29.24,North,-999,-999.0,-999.0,96,-99.99,,,-99.99,Homeseer,2013-04-01 06:49:00,
2013-04-01 02:54:00,43.0,42.4,29.23,North,-999,-999.0,-999.0,97,-99.99,,,-99.99,Homeseer,2013-04-01 06:54:00,
2013-04-01 02:59:00,43.1,42.3,29.23,North,-999,-999.0,-999.0,96,-99.99,,,-99.99,Homeseer,2013-04-01 06:59:00,
2013-04-01 03:04:00,43.1,42.3,29.23,North,-999,-999.0,-999.0,96,-99.99,,,-99.99,Homeseer,2013-04-01 07:04:00,
2013-04-01 03:09:00,43.2,42.2,29.21,North,-999,-999.0,-999.0,95,-99.99,,,-99.99,Homeseer,2013-04-01 07:09:00,
2013-04-01 03:14:00,43.2,42.4,29.21,North,-999,-999.0,-999.0,96,-99.99,,,-99.99,Homeseer,2013-04-01 07:14:00,
2013-04-01 03:20:00,43.1,42.3,29.21,North,-999,-999.0,-999.0,96,-99.99,,,-99.99,Homeseer,2013-04-01 07:20:00,
2013-04-01 03:25:00,43.2,42.4,29.21,North,-999,-999.0,-999.0,96,-99.99,,,-99.99,Homeseer,2013-04-01 07:25:00,
2013-04-01 03:30:00,43.1,42.5,29.21,North,-999,-999.0,-999.0,97,-99.99,,,-99.99,Homeseer,2013-04-01 07:30:00,
2013-04-01 03:35:00,43.0,42.6,29.20,North,-999,-999.0,-999.0,98,-99.99,,,-99.99,Homeseer,2013-04-01 07:35:00,
2013-04-01 03:40:00,43.1,42.5,29.21,North,-999,-999.0,-999.0,97,-99.99,,,-99.99,Homeseer,2013-04-01 07:40:00,
2013-04-01 03:45:00,43.0,42.4,29.21,North,-999,-999.0,-999.0,97,-99.99,,,-99.99,Homeseer,2013-04-01 07:45:00,
2013-04-01 03:50:00,42.8,42.2,29.21,North,-999,-999.0,-999.0,97,-99.99,,,-99.99,Homeseer,2013-04-01 07:50:00,
2013-04-01 03:55:00,42.6,41.8,29.20,North,-999,-999.0,-999.0,96,-99.99,,,-99.99,Homeseer,2013-04-01 07:55:00,
2013-04-01 04:00:00,42.7,41.9,29.21,North,-999,-999.0,-999.0,96,-99.99,,,-99.99,Homeseer,2013-04-01 08:00:00,
2013-04-01 04:05:00,42.6,41.8,29.20,North,-999,-999.0,-999.0,96,-99.99,,,-99.99,Homeseer,2013-04-01 08:05:00,
2013-04-01 04:10:00,42.5,42.1,29.19,North,-999,-999.0,-999.0,98,-99.99,,,-99.99,Homeseer,2013-04-01 08:10:00,
2013-04-01 04:15:00,42.6,42.0,29.19,North,-999,-999.0,-999.0,97,-99.99,,,-99.99,Homeseer,2013-04-01 08:15:00,
2013-04-01 04:20:00,42.4,41.8,29.18,North,-999,-999.0,-999.0,97,-99.99,,,-99.99,Homeseer,2013-04-01 08:20:00,
2013-04-01 04:25:00,42.5,41.7,29.18,North,-999,-999.0,-999.0,96,-99.99,,,-99.99,Homeseer,2013-04-01 08:25:00,
2013-04-01 04:30:00,42.3,41.5,29.18,North,-999,-999.0,-999.0,96,-99.99,,,-99.99,Homeseer,2013-04-01 08:30:00,
2013-04-01 04:35:00,42.2,41.6,29.19,North,-999,-999.0,-999.0,97,-99.99,,,-99.99,Homeseer,2013-04-01 08:35:00,
2013-04-01 04:40:00,42.2,41.6,29.20,North,-999,-999.0,-999.0,97,-99.99,,,-99.99,Homeseer,2013-04-01 08:40:00,
2013-04-01 04:45:00,42.2,41.6,29.20,North,-999,-999.0,-999.0,97,-99.99,,,-99.99,Homeseer,2013-04-01 08:45:00,
2013-04-01 04:50:00,42.2,41.6,29.21,North,-999,-999.0,-999.0,97,-99.99,,,-99.99,Homeseer,2013-04-01 08:50:00,
2013-04-01 04:57:00,42.0,41.6,29.20,North,-999,-999.0,-999.0,98,-99.99,,,-99.99,Homeseer,2013-04-01 08:57:00,
2013-04-01 05:02:00,42.2,41.6,29.21,North,-999,-999.0,-999.0,97,-99.99,,,-99.99,Homeseer,2013-04-01 09:02:00,
2013-04-01 05:07:00,41.9,41.5,29.22,North,-999,-999.0,-999.0,98,-99.99,,,-99.99,Homeseer,2013-04-01 09:07:00,
2013-04-01 05:12:00,42.2,41.8,29.21,North,-999,-999.0,-999.0,98,-99.99,,,-99.99,Homeseer,2013-04-01 09:12:00,
2013-04-01 05:18:00,41.8,41.4,29.21,North,-999,-999.0,-999.0,98,-99.99,,,-99.99,Homeseer,2013-04-01 09:18:00,
2013-04-01 05:23:00,42.0,41.6,29.21,North,-999,-999.0,-999.0,98,-99.99,,,-99.99,Homeseer,2013-04-01 09:23:00,
2013-04-01 05:28:00,42.2,41.6,29.21,North,-999,-999.0,-999.0,97,-99.99,,,-99.99,Homeseer,2013-04-01 09:28:00,
2013-04-01 05:33:00,42.2,41.8,29.21,North,-999,-999.0,-999.0,98,-99.99,,,-99.99,Homeseer,2013-04-01 09:33:00,
2013-04-01 05:39:00,42.3,41.7,29.23,North,-999,-999.0,-999.0,97,-99.99,,,-99.99,Homeseer,2013-04-01 09:39:00,
2013-04-01 05:44:00,42.3,41.9,29.23,North,-999,-999.0,-999.0,98,-99.99,,,-99.99,Homeseer,2013-04-01 09:44:00,
2013-04-01 05:49:00,42.3,41.9,29.23,North,-999,-999.0,-999.0,98,-99.99,,,-99.99,Homeseer,2013-04-01 09:49:00,
2013-04-01 05:54:00,42.4,42.0,29.24,North,-999,-999.0,-999.0,98,-99.99,,,-99.99,Homeseer,2013-04-01 09:54:00,
2013-04-01 05:59:00,42.3,41.9,29.25,North,-999,-999.0,-999.0,98,-99.99,,,-99.99,Homeseer,2013-04-01 09:59:00,
2013-04-01 06:04:00,42.4,41.6,29.25,North,-999,-999.0,-999.0,96,-99.99,,,-99.99,Homeseer,2013-04-01 10:04:00,
2013-04-01 06:09:00,42.3,41.9,29.25,North,-999,-999.0,-999.0,98,-99.99,,,-99.99,Homeseer,2013-04-01 10:09:00,
2013-04-01 06:15:00,42.3,41.7,29.26,North,-999,-999.0,-999.0,97,-99.99,,,-99.99,Homeseer,2013-04-01 10:15:00,
2013-04-01 06:20:00,42.4,41.8,29.26,North,-999,-999.0,-999.0,97,-99.99,,,-99.99,Homeseer,2013-04-01 10:20:00,
2013-04-01 06:25:00,42.3,41.7,29.26,North,-999,-999.0,-999.0,97,-99.99,,,-99.99,Homeseer,2013-04-01 10:25:00,
2013-04-01 06:30:00,42.3,41.7,29.26,North,-999,-999.0,-999.0,97,-99.99,,,-99.99,Homeseer,2013-04-01 10:30:00,
2013-04-01 06:35:00,42.0,41.4,29.27,North,-999,-999.0,-999.0,97,-99.99,,,-99.99,Homeseer,2013-04-01 10:35:00,
2013-04-01 06:40:00,42.0,41.4,29.26,North,-999,-999.0,-999.0,97,-99.99,,,-99.99,Homeseer,2013-04-01 10:40:00,
2013-04-01 06:45:00,42.0,41.4,29.26,North,-999,-999.0,-999.0,97,-99.99,,,-99.99,Homeseer,2013-04-01 10:45:00,
2013-04-01 06:50:00,41.9,41.3,29.27,North,-999,-999.0,-999.0,97,-99.99,,,-99.99,Homeseer,2013-04-01 10:50:00,
2013-04-01 06:55:00,41.8,41.2,29.27,North,-999,-999.0,-999.0,97,-99.99,,,-99.99,Homeseer,2013-04-01 10:55:00,
2013-04-01 07:00:00,42.0,41.4,29.28,North,-999,-999.0,-999.0,97,-99.99,,,-99.99,Homeseer,2013-04-01 11:00:00,
2013-04-01 07:05:00,42.0,41.4,29.28,North,-999,-999.0,-999.0,97,-99.99,,,-99.99,Homeseer,2013-04-01 11:05:00,
2013-04-01 07:10:00,41.9,41.3,29.28,North,-999,-999.0,-999.0,97,-99.99,,,-99.99,Homeseer,2013-04-01 11:10:00,
2013-04-01 07:15:00,42.0,41.4,29.28,North,-999,-999.0,-999.0,97,-99.99,,,-99.99,Homeseer,2013-04-01 11:15:00,
2013-04-01 07:20:00,42.0,41.4,29.29,North,-999,-999.0,-999.0,97,-99.99,,,-99.99,Homeseer,2013-04-01 11:20:00,
2013-04-01 07:25:00,42.3,41.9,29.28,North,-999,-999.0,-999.0,98,-99.99,,,-99.99,Homeseer,2013-04-01 11:25:00,
2013-04-01 07:30:00,42.3,41.7,29.28,North,-999,-999.0,-999.0,97,-99.99,,,-99.99,Homeseer,2013-04-01 11:30:00,
2013-04-01 07:35:00,42.4,41.8,29.28,North,-999,-999.0,-999.0,97,-99.99,,,-99.99,Homeseer,2013-04-01 11:35:00,
2013-04-01 07:40:00,42.5,41.9,29.28,North,-999,-999.0,-999.0,97,-99.99,,,-99.99,Homeseer,2013-04-01 11:40:00,
2013-04-01 07:45:00,42.5,41.9,29.28,North,-999,-999.0,-999.0,97,-99.99,,,-99.99,Homeseer,2013-04-01 11:45:00,
2013-04-01 07:50:00,42.5,41.9,29.28,North,-999,-999.0,-999.0,97,-99.99,,,-99.99,Homeseer,2013-04-01 11:50:00,
2013-04-01 07:55:00,42.6,42.0,29.27,North,-999,-999.0,-999.0,97,-99.99,,,-99.99,Homeseer,2013-04-01 11:55:00,
2013-04-01 08:00:00,42.7,42.1,29.27,North,-999,-999.0,-999.0,97,-99.99,,,-99.99,Homeseer,2013-04-01 12:00:00,
2013-04-01 08:05:00,42.8,42.2,29.27,North,-999,-999.0,-999.0,97,-99.99,,,-99.99,Homeseer,2013-04-01 12:05:00,
2013-04-01 08:10:00,42.8,42.0,29.27,North,-999,-999.0,-999.0,96,-99.99,,,-99.99,Homeseer,2013-04-01 12:10:00,
2013-04-01 08:15:00,43.2,42.6,29.27,North,-999,-999.0,-999.0,97,-99.99,,,-99.99,Homeseer,2013-04-01 12:15:00,
2013-04-01 08:20:00,43.3,42.5,29.27,North,-999,-999.0,-999.0,96,-99.99,,,-99.99,Homeseer,2013-04-01 12:20:00,
2013-04-01 08:27:00,43.6,42.8,29.27,North,-999,-999.0,-999.0,96,-99.99,,,-99.99,Homeseer,2013-04-01 12:27:00,
2013-04-01 08:32:00,44.3,43.3,29.27,North,-999,-999.0,-999.0,95,-99.99,,,-99.99,Homeseer,2013-04-01 12:32:00,
2013-04-01 08:38:00,44.6,43.6,29.27,North,-999,-999.0,-999.0,95,-99.99,,,-99.99,Homeseer,2013-04-01 12:38:00,
2013-04-01 08:43:00,44.8,43.6,29.27,North,-999,-999.0,-999.0,94,-99.99,,,-99.99,Homeseer,2013-04-01 12:43:00,
2013-04-01 08:48:00,45.2,44.0,29.27,North,-999,-999.0,-999.0,94,-99.99,,,-99.99,Homeseer,2013-04-01 12:48:00,
2013-04-01 08:53:00,45.3,43.7,29.27,North,-999,-999.0,-999.0,92,-99.99,,,-99.99,Homeseer,2013-04-01 12:53:00,
2013-04-01 08:58:00,45.9,44.3,29.27,North,-999,-999.0,-999.0,92,-99.99,,,-99.99,Homeseer,2013-04-01 12:58:00,
2013-04-01 09:03:00,46.7,45.1,29.27,North,-999,-999.0,-999.0,92,-99.99,,,-99.99,Homeseer,2013-04-01 13:03:00,
2013-04-01 09:08:00,47.2,45.1,29.27,North,-999,-999.0,-999.0,90,-99.99,,,-99.99,Homeseer,2013-04-01 13:08:00,
2013-04-01 09:13:00,47.3,44.6,29.27,North,-999,-999.0,-999.0,87,-99.99,,,-99.99,Homeseer,2013-04-01 13:13:00,
2013-04-01 09:18:00,47.2,44.5,29.27,North,-999,-999.0,-999.0,87,-99.99,,,-99.99,Homeseer,2013-04-01 13:18:00,
2013-04-01 09:23:00,47.8,43.9,29.27,North,-999,-999.0,-999.0,82,-99.99,,,-99.99,Homeseer,2013-04-01 13:23:00,
2013-04-01 09:28:00,48.1,44.7,29.27,North,-999,-999.0,-999.0,84,-99.99,,,-99.99,Homeseer,2013-04-01 13:28:00,
2013-04-01 09:34:00,48.5,44.8,29.26,North,-999,-999.0,-999.0,83,-99.99,,,-99.99,Homeseer,2013-04-01 13:34:00,
2013-04-01 09:39:00,48.8,44.7,29.26,North,-999,-999.0,-999.0,81,-99.99,,,-99.99,Homeseer,2013-04-01 13:39:00,
2013-04-01 09:44:00,49.1,45.0,29.25,North,-999,-999.0,-999.0,81,-99.99,,,-99.99,Homeseer,2013-04-01 13:44:00,
2013-04-01 09:49:00,49.7,44.8,29.25,North,-999,-999.0,-999.0,78,-99.99,,,-99.99,Homeseer,2013-04-01 13:49:00,
2013-04-01 09:54:00,49.6,44.2,29.25,North,-999,-999.0,-999.0,76,-99.99,,,-99.99,Homeseer,2013-04-01 13:54:00,
2013-04-01 09:59:00,50.2,45.0,29.26,North,-999,-999.0,-999.0,77,-99.99,,,-99.99,Homeseer,2013-04-01 13:59:00,
2013-04-01 10:04:00,50.7,45.3,29.26,North,-999,-999.0,-999.0,76,-99.99,,,-99.99,Homeseer,2013-04-01 14:04:00,
2013-04-01 10:10:00,50.5,45.1,29.25,North,-999,-999.0,-999.0,76,-99.99,,,-99.99,Homeseer,2013-04-01 14:10:00,
2013-04-01 10:17:00,51.0,45.3,29.25,North,-999,-999.0,-999.0,75,-99.99,,,-99.99,Homeseer,2013-04-01 14:17:00,
2013-04-01 10:22:00,51.2,45.0,29.25,North,-999,-999.0,-999.0,73,-99.99,,,-99.99,Homeseer,2013-04-01 14:22:00,
2013-04-01 10:27:00,51.2,44.7,29.25,North,-999,-999.0,-999.0,72,-99.99,,,-99.99,Homeseer,2013-04-01 14:27:00,
2013-04-01 10:32:00,51.2,44.7,29.24,North,-999,-999.0,-999.0,72,-99.99,,,-99.99,Homeseer,2013-04-01 14:32:00,
2013-04-01 10:37:00,51.4,44.6,29.25,North,-999,-999.0,-999.0,71,-99.99,,,-99.99,Homeseer,2013-04-01 14:37:00,
2013-04-01 10:42:00,52.3,45.5,29.25,North,-999,-999.0,-999.0,71,-99.99,,,-99.99,Homeseer,2013-04-01 14:42:00,
2013-04-01 10:47:00,52.8,45.4,29.25,North,-999,-999.0,-999.0,69,-99.99,,,-99.99,Homeseer,2013-04-01 14:47:00,
2013-04-01 10:52:00,53.6,45.3,29.25,North,-999,-999.0,-999.0,66,-99.99,,,-99.99,Homeseer,2013-04-01 14:52:00,
2013-04-01 10:57:00,54.4,46.3,29.25,North,-999,-999.0,-999.0,67,-99.99,,,-99.99,Homeseer,2013-04-01 14:57:00,
2013-04-01 11:03:00,55.2,46.8,29.25,North,-999,-999.0,-999.0,66,-99.99,,,-99.99,Homeseer,2013-04-01 15:03:00,
2013-04-01 11:08:00,55.9,47.5,29.25,North,-999,-999.0,-999.0,66,-99.99,,,-99.99,Homeseer,2013-04-01 15:08:00,
2013-04-01 11:13:00,55.8,45.8,29.24,North,-999,-999.0,-999.0,61,-99.99,,,-99.99,Homeseer,2013-04-01 15:13:00,
2013-04-01 11:18:00,55.2,45.3,29.24,North,-999,-999.0,-999.0,61,-99.99,,,-99.99,Homeseer,2013-04-01 15:18:00,
2013-04-01 11:23:00,55.4,46.4,29.23,North,-999,-999.0,-999.0,64,-99.99,,,-99.99,Homeseer,2013-04-01 15:23:00,
2013-04-01 11:29:00,56.0,45.7,29.23,North,-999,-999.0,-999.0,60,-99.99,,,-99.99,Homeseer,2013-04-01 15:29:00,
2013-04-01 11:34:00,56.7,47.0,29.22,North,-999,-999.0,-999.0,62,-99.99,,,-99.99,Homeseer,2013-04-01 15:34:00,
2013-04-01 11:39:00,57.6,46.5,29.21,North,-999,-999.0,-999.0,58,-99.99,,,-99.99,Homeseer,2013-04-01 15:39:00,
2013-04-01 11:44:00,58.4,47.3,29.20,North,-999,-999.0,-999.0,58,-99.99,,,-99.99,Homeseer,2013-04-01 15:44:00,
2013-04-01 11:50:00,58.0,46.2,29.20,North,-999,-999.0,-999.0,56,-99.99,,,-99.99,Homeseer,2013-04-01 15:50:00,
2013-04-01 11:55:00,59.2,47.3,29.19,North,-999,-999.0,-999.0,56,-99.99,,,-99.99,Homeseer,2013-04-01 15:55:00,
2013-04-01 12:00:00,59.5,46.9,29.19,North,-999,-999.0,-999.0,54,-99.99,,,-99.99,Homeseer,2013-04-01 16:00:00,
2013-04-01 12:05:00,59.6,47.7,29.20,North,-999,-999.0,-999.0,56,-99.99,,,-99.99,Homeseer,2013-04-01 16:05:00,
2013-04-01 12:10:00,59.4,46.8,29.19,North,-999,-999.0,-999.0,54,-99.99,,,-99.99,Homeseer,2013-04-01 16:10:00,
2013-04-01 12:16:00,60.0,47.7,29.19,North,-999,-999.0,-999.0,55,-99.99,,,-99.99,Homeseer,2013-04-01 16:16:00,
2013-04-01 12:23:00,60.4,47.3,29.19,North,-999,-999.0,-999.0,53,-99.99,,,-99.99,Homeseer,2013-04-01 16:23:00,
2013-04-01 12:28:00,60.3,47.2,29.19,North,-999,-999.0,-999.0,53,-99.99,,,-99.99,Homeseer,2013-04-01 16:28:00,
2013-04-01 12:34:00,60.7,47.2,29.18,North,-999,-999.0,-999.0,52,-99.99,,,-99.99,Homeseer,2013-04-01 16:34:00,
2013-04-01 12:39:00,60.8,46.6,29.18,North,-999,-999.0,-999.0,50,-99.99,,,-99.99,Homeseer,2013-04-01 16:39:00,
2013-04-01 12:44:00,61.3,47.0,29.18,North,-999,-999.0,-999.0,50,-99.99,,,-99.99,Homeseer,2013-04-01 16:44:00,
2013-04-01 12:50:00,60.8,46.6,29.17,North,-999,-999.0,-999.0,50,-99.99,,,-99.99,Homeseer,2013-04-01 16:50:00,
2013-04-01 12:55:00,61.1,46.0,29.17,North,-999,-999.0,-999.0,48,-99.99,,,-99.99,Homeseer,2013-04-01 16:55:00,
2013-04-01 13:00:00,60.8,45.8,29.17,North,-999,-999.0,-999.0,48,-99.99,,,-99.99,Homeseer,2013-04-01 17:00:00,
2013-04-01 13:05:00,61.2,46.5,29.17,North,-999,-999.0,-999.0,49,-99.99,,,-99.99,Homeseer,2013-04-01 17:05:00,
2013-04-01 13:10:00,61.3,45.0,29.16,North,-999,-999.0,-999.0,45,-99.99,,,-99.99,Homeseer,2013-04-01 17:10:00,
2013-04-01 13:15:00,61.7,47.0,29.16,North,-999,-999.0,-999.0,49,-99.99,,,-99.99,Homeseer,2013-04-01 17:15:00,
2013-04-01 13:22:00,61.4,47.1,29.15,North,-999,-999.0,-999.0,50,-99.99,,,-99.99,Homeseer,2013-04-01 17:22:00,
2013-04-01 13:28:00,61.0,45.5,29.15,North,-999,-999.0,-999.0,47,-99.99,,,-99.99,Homeseer,2013-04-01 17:28:00,
2013-04-01 13:33:00,60.7,46.5,29.15,North,-999,-999.0,-999.0,50,-99.99,,,-99.99,Homeseer,2013-04-01 17:33:00,
2013-04-01 13:38:00,60.7,45.7,29.15,North,-999,-999.0,-999.0,48,-99.99,,,-99.99,Homeseer,2013-04-01 17:38:00,
2013-04-01 13:43:00,60.6,45.2,29.14,North,-999,-999.0,-999.0,47,-99.99,,,-99.99,Homeseer,2013-04-01 17:43:00,
2013-04-01 13:48:00,60.3,44.1,29.13,North,-999,-999.0,-999.0,45,-99.99,,,-99.99,Homeseer,2013-04-01 17:48:00,
2013-04-01 13:53:00,59.9,44.1,29.13,North,-999,-999.0,-999.0,46,-99.99,,,-99.99,Homeseer,2013-04-01 17:53:00,
2013-04-01 13:59:00,59.2,43.5,29.13,North,-999,-999.0,-999.0,46,-99.99,,,-99.99,Homeseer,2013-04-01 17:59:00,
2013-04-01 14:04:00,59.0,43.7,29.13,North,-999,-999.0,-999.0,47,-99.99,,,-99.99,Homeseer,2013-04-01 18:04:00,
2013-04-01 14:09:00,59.2,43.9,29.13,North,-999,-999.0,-999.0,47,-99.99,,,-99.99,Homeseer,2013-04-01 18:09:00,
2013-04-01 14:14:00,59.0,44.1,29.12,North,-999,-999.0,-999.0,48,-99.99,,,-99.99,Homeseer,2013-04-01 18:14:00,
2013-04-01 14:20:00,58.7,43.5,29.12,North,-999,-999.0,-999.0,47,-99.99,,,-99.99,Homeseer,2013-04-01 18:20:00,
2013-04-01 14:25:00,59.0,43.7,29.11,North,-999,-999.0,-999.0,47,-99.99,,,-99.99,Homeseer,2013-04-01 18:25:00,
2013-04-01 14:30:00,59.2,45.1,29.11,North,-999,-999.0,-999.0,50,-99.99,,,-99.99,Homeseer,2013-04-01 18:30:00,
2013-04-01 14:35:00,59.2,44.3,29.11,North,-999,-999.0,-999.0,48,-99.99,,,-99.99,Homeseer,2013-04-01 18:35:00,
2013-04-01 14:40:00,58.8,44.3,29.11,North,-999,-999.0,-999.0,49,-99.99,,,-99.99,Homeseer,2013-04-01 18:40:00,
2013-04-01 14:45:00,58.0,43.6,29.10,North,-999,-999.0,-999.0,49,-99.99,,,-99.99,Homeseer,2013-04-01 18:45:00,
2013-04-01 14:50:00,57.9,43.5,29.10,North,-999,-999.0,-999.0,49,-99.99,,,-99.99,Homeseer,2013-04-01 18:50:00,
2013-04-01 14:55:00,58.4,44.0,29.09,North,-999,-999.0,-999.0,49,-99.99,,,-99.99,Homeseer,2013-04-01 18:55:00,
2013-04-01 15:00:00,59.2,44.3,29.09,North,-999,-999.0,-999.0,48,-99.99,,,-99.99,Homeseer,2013-04-01 19:00:00,
2013-04-01 15:05:00,60.0,44.6,29.09,North,-999,-999.0,-999.0,47,-99.99,,,-99.99,Homeseer,2013-04-01 19:05:00,
2013-04-01 15:10:00,60.2,45.2,29.09,North,-999,-999.0,-999.0,48,-99.99,,,-99.99,Homeseer,2013-04-01 19:10:00,
2013-04-01 15:15:00,61.6,45.2,29.08,North,-999,-999.0,-999.0,45,-99.99,,,-99.99,Homeseer,2013-04-01 19:15:00,
2013-04-01 15:20:00,61.7,44.4,29.09,North,-999,-999.0,-999.0,43,-99.99,,,-99.99,Homeseer,2013-04-01 19:20:00,
2013-04-01 15:25:00,59.2,44.3,29.15,North,-999,-999.0,-999.0,48,-99.99,,,-99.99,Homeseer,2013-04-01 19:25:00,
2013-04-01 15:30:00,55.4,43.5,29.15,North,-999,-999.0,-999.0,55,-99.99,,,-99.99,Homeseer,2013-04-01 19:30:00,
2013-04-01 15:35:00,53.0,43.5,29.16,North,-999,-999.0,-999.0,62,-99.99,,,-99.99,Homeseer,2013-04-01 19:35:00,
2013-04-01 15:40:00,51.0,42.6,29.16,North,-999,-999.0,-999.0,65,-99.99,,,-99.99,Homeseer,2013-04-01 19:40:00,
2013-04-01 15:45:00,50.2,42.4,29.15,North,-999,-999.0,-999.0,67,-99.99,,,-99.99,Homeseer,2013-04-01 19:45:00,
2013-04-01 15:50:00,50.0,43.3,29.16,North,-999,-999.0,-999.0,71,-99.99,,,-99.99,Homeseer,2013-04-01 19:50:00,
2013-04-01 15:57:00,50.4,44.7,29.15,North,-999,-999.0,-999.0,75,-99.99,,,-99.99,Homeseer,2013-04-01 19:57:00,
2013-04-01 16:02:00,50.4,43.9,29.15,North,-999,-999.0,-999.0,72,-99.99,,,-99.99,Homeseer,2013-04-01 20:02:00,
2013-04-01 16:08:00,50.3,43.6,29.16,North,-999,-999.0,-999.0,71,-99.99,,,-99.99,Homeseer,2013-04-01 20:08:00,
2013-04-01 16:13:00,49.9,43.2,29.17,North,-999,-999.0,-999.0,71,-99.99,,,-99.99,Homeseer,2013-04-01 20:13:00,
2013-04-01 16:18:00,49.6,42.4,29.16,North,-999,-999.0,-999.0,69,-99.99,,,-99.99,Homeseer,2013-04-01 20:18:00,
2013-04-01 16:23:00,48.9,41.7,29.16,North,-999,-999.0,-999.0,69,-99.99,,,-99.99,Homeseer,2013-04-01 20:23:00,
2013-04-01 16:28:00,48.7,41.5,29.17,North,-999,-999.0,-999.0,69,-99.99,,,-99.99,Homeseer,2013-04-01 20:28:00,
2013-04-01 16:33:00,48.7,41.5,29.18,North,-999,-999.0,-999.0,69,-99.99,,,-99.99,Homeseer,2013-04-01 20:33:00,
2013-04-01 16:38:00,48.6,41.1,29.17,North,-999,-999.0,-999.0,68,-99.99,,,-99.99,Homeseer,2013-04-01 20:38:00,
2013-04-01 16:43:00,48.4,40.9,29.19,North,-999,-999.0,-999.0,68,-99.99,,,-99.99,Homeseer,2013-04-01 20:43:00,
2013-04-01 16:48:00,47.9,40.7,29.20,North,-999,-999.0,-999.0,69,-99.99,,,-99.99,Homeseer,2013-04-01 20:48:00,
2013-04-01 16:53:00,47.8,40.6,29.20,North,-999,-999.0,-999.0,69,-99.99,,,-99.99,Homeseer,2013-04-01 20:53:00,
2013-04-01 16:58:00,47.8,40.1,29.21,North,-999,-999.0,-999.0,67,-99.99,,,-99.99,Homeseer,2013-04-01 20:58:00,
2013-04-01 17:03:00,47.9,40.2,29.21,North,-999,-999.0,-999.0,67,-99.99,,,-99.99,Homeseer,2013-04-01 21:03:00,
2013-04-01 17:08:00,48.0,39.1,29.21,North,-999,-999.0,-999.0,63,-99.99,,,-99.99,Homeseer,2013-04-01 21:08:00,
2013-04-01 17:13:00,48.7,38.6,29.22,North,-999,-999.0,-999.0,59,-99.99,,,-99.99,Homeseer,2013-04-01 21:13:00,
2013-04-01 17:18:00,48.4,38.3,29.23,North,-999,-999.0,-999.0,59,-99.99,,,-99.99,Homeseer,2013-04-01 21:18:00,
2013-04-01 17:23:00,47.8,37.1,29.23,North,-999,-999.0,-999.0,57,-99.99,,,-99.99,Homeseer,2013-04-01 21:23:00,
2013-04-01 17:28:00,47.2,36.9,29.24,North,-999,-999.0,-999.0,58,-99.99,,,-99.99,Homeseer,2013-04-01 21:28:00,
2013-04-01 17:33:00,46.9,36.3,29.25,North,-999,-999.0,-999.0,57,-99.99,,,-99.99,Homeseer,2013-04-01 21:33:00,
2013-04-01 17:38:00,46.0,35.4,29.25,North,-999,-999.0,-999.0,57,-99.99,,,-99.99,Homeseer,2013-04-01 21:38:00,
2013-04-01 17:43:00,46.1,35.8,29.25,North,-999,-999.0,-999.0,58,-99.99,,,-99.99,Homeseer,2013-04-01 21:43:00,
2013-04-01 17:48:00,46.2,35.9,29.25,North,-999,-999.0,-999.0,58,-99.99,,,-99.99,Homeseer,2013-04-01 21:48:00,
2013-04-01 17:54:00,45.9,34.7,29.26,North,-999,-999.0,-999.0,55,-99.99,,,-99.99,Homeseer,2013-04-01 21:54:00,
2013-04-01 17:59:00,45.5,34.3,29.27,North,-999,-999.0,-999.0,55,-99.99,,,-99.99,Homeseer,2013-04-01 21:59:00,
2013-04-01 18:04:00,45.4,34.2,29.27,North,-999,-999.0,-999.0,55,-99.99,,,-99.99,Homeseer,2013-04-01 22:04:00,
2013-04-01 18:09:00,44.5,32.1,29.28,North,-999,-999.0,-999.0,51,-99.99,,,-99.99,Homeseer,2013-04-01 22:09:00,
2013-04-01 18:14:00,44.5,32.4,29.29,North,-999,-999.0,-999.0,52,-99.99,,,-99.99,Homeseer,2013-04-01 22:14:00,
2013-04-01 18:19:00,44.4,32.0,29.29,North,-999,-999.0,-999.0,51,-99.99,,,-99.99,Homeseer,2013-04-01 22:19:00,
2013-04-01 18:24:00,43.8,31.4,29.29,North,-999,-999.0,-999.0,51,-99.99,,,-99.99,Homeseer,2013-04-01 22:24:00,
2013-04-01 18:29:00,43.6,31.2,29.29,North,-999,-999.0,-999.0,51,-99.99,,,-99.99,Homeseer,2013-04-01 22:29:00,
2013-04-01 18:34:00,43.2,31.2,29.29,North,-999,-999.0,-999.0,52,-99.99,,,-99.99,Homeseer,2013-04-01 22:34:00,
2013-04-01 18:39:00,42.8,30.5,29.29,North,-999,-999.0,-999.0,51,-99.99,,,-99.99,Homeseer,2013-04-01 22:39:00,
2013-04-01 18:44:00,42.6,30.7,29.30,North,-999,-999.0,-999.0,52,-99.99,,,-99.99,Homeseer,2013-04-01 22:44:00,
2013-04-01 18:50:00,42.5,30.9,29.31,North,-999,-999.0,-999.0,53,-99.99,,,-99.99,Homeseer,2013-04-01 22:50:00,
2013-04-01 18:55:00,42.4,30.5,29.32,North,-999,-999.0,-999.0,52,-99.99,,,-99.99,Homeseer,2013-04-01 22:55:00,
2013-04-01 19:00:00,42.3,30.4,29.31,North,-999,-999.0,-999.0,52,-99.99,,,-99.99,Homeseer,2013-04-01 23:00:00,
2013-04-01 19:05:00,42.0,29.8,29.32,North,-999,-999.0,-999.0,51,-99.99,,,-99.99,Homeseer,2013-04-01 23:05:00,
2013-04-01 19:10:00,41.9,30.0,29.33,North,-999,-999.0,-999.0,52,-99.99,,,-99.99,Homeseer,2013-04-01 23:10:00,
2013-04-01 19:15:00,41.9,29.7,29.33,North,-999,-999.0,-999.0,51,-99.99,,,-99.99,Homeseer,2013-04-01 23:15:00,
2013-04-01 19:20:00,42.0,30.1,29.34,North,-999,-999.0,-999.0,52,-99.99,,,-99.99,Homeseer,2013-04-01 23:20:00,
2013-04-01 19:25:00,41.7,29.5,29.34,North,-999,-999.0,-999.0,51,-99.99,,,-99.99,Homeseer,2013-04-01 23:25:00,
2013-04-01 19:30:00,41.7,29.5,29.34,North,-999,-999.0,-999.0,51,-99.99,,,-99.99,Homeseer,2013-04-01 23:30:00,
2013-04-01 19:35:00,41.6,29.7,29.34,North,-999,-999.0,-999.0,52,-99.99,,,-99.99,Homeseer,2013-04-01 23:35:00,
2013-04-01 19:40:00,41.0,27.5,29.35,North,-999,-999.0,-999.0,47,-99.99,,,-99.99,Homeseer,2013-04-01 23:40:00,
2013-04-01 19:45:00,41.2,26.5,29.35,North,-999,-999.0,-999.0,44,-99.99,,,-99.99,Homeseer,2013-04-01 23:45:00,
2013-04-01 19:50:00,40.8,26.5,29.35,North,-999,-999.0,-999.0,45,-99.99,,,-99.99,Homeseer,2013-04-01 23:50:00,
2013-04-01 19:55:00,40.4,25.0,29.35,North,-999,-999.0,-999.0,42,-99.99,,,-99.99,Homeseer,2013-04-01 23:55:00,
2013-04-01 20:00:00,40.6,25.6,29.36,North,-999,-999.0,-999.0,43,-99.99,,,-99.99,Homeseer,2013-04-02 00:00:00,
2013-04-01 20:05:00,40.4,25.0,29.36,North,-999,-999.0,-999.0,42,-99.99,,,-99.99,Homeseer,2013-04-02 00:05:00,
2013-04-01 20:10:00,40.2,24.8,29.37,North,-999,-999.0,-999.0,42,-99.99,,,-99.99,Homeseer,2013-04-02 00:10:00,
2013-04-01 20:15:00,40.0,24.6,29.37,North,-999,-999.0,-999.0,42,-99.99,,,-99.99,Homeseer,2013-04-02 00:15:00,
2013-04-01 20:20:00,39.9,25.0,29.37,North,-999,-999.0,-999.0,43,-99.99,,,-99.99,Homeseer,2013-04-02 00:20:00,
2013-04-01 20:25:00,39.7,25.5,29.37,North,-999,-999.0,-999.0,45,-99.99,,,-99.99,Homeseer,2013-04-02 00:25:00,
2013-04-01 20:30:00,39.4,26.0,29.38,North,-999,-999.0,-999.0,47,-99.99,,,-99.99,Homeseer,2013-04-02 00:30:00,
2013-04-01 20:35:00,38.9,23.7,29.38,North,-999,-999.0,-999.0,42,-99.99,,,-99.99,Homeseer,2013-04-02 00:35:00,
2013-04-01 20:40:00,38.6,23.0,29.39,North,-999,-999.0,-999.0,41,-99.99,,,-99.99,Homeseer,2013-04-02 00:40:00,
2013-04-01 20:45:00,38.6,22.2,29.40,North,-999,-999.0,-999.0,39,-99.99,,,-99.99,Homeseer,2013-04-02 00:45:00,
2013-04-01 20:50:00,38.8,22.8,29.41,North,-999,-999.0,-999.0,40,-99.99,,,-99.99,Homeseer,2013-04-02 00:50:00,
2013-04-01 20:55:00,38.0,21.2,29.41,North,-999,-999.0,-999.0,38,-99.99,,,-99.99,Homeseer,2013-04-02 00:55:00,
2013-04-01 21:01:00,38.0,20.3,29.42,North,-999,-999.0,-999.0,36,-99.99,,,-99.99,Homeseer,2013-04-02 01:01:00,
2013-04-01 21:07:00,37.4,19.4,29.42,North,-999,-999.0,-999.0,35,-99.99,,,-99.99,Homeseer,2013-04-02 01:07:00,
2013-04-01 21:12:00,37.7,19.6,29.43,North,-999,-999.0,-999.0,35,-99.99,,,-99.99,Homeseer,2013-04-02 01:12:00,
2013-04-01 21:17:00,37.3,18.3,29.43,North,-999,-999.0,-999.0,33,-99.99,,,-99.99,Homeseer,2013-04-02 01:17:00,
2013-04-01 21:22:00,37.3,19.3,29.44,North,-999,-999.0,-999.0,35,-99.99,,,-99.99,Homeseer,2013-04-02 01:22:00,
2013-04-01 21:28:00,37.6,20.0,29.45,North,-999,-999.0,-999.0,36,-99.99,,,-99.99,Homeseer,2013-04-02 01:28:00,
2013-04-01 21:33:00,37.3,19.3,29.45,North,-999,-999.0,-999.0,35,-99.99,,,-99.99,Homeseer,2013-04-02 01:33:00,
2013-04-01 21:38:00,37.0,19.9,29.45,North,-999,-999.0,-999.0,37,-99.99,,,-99.99,Homeseer,2013-04-02 01:38:00,
2013-04-01 21:44:00,37.0,19.9,29.45,North,-999,-999.0,-999.0,37,-99.99,,,-99.99,Homeseer,2013-04-02 01:44:00,
2013-04-01 21:49:00,36.8,19.7,29.45,North,-999,-999.0,-999.0,37,-99.99,,,-99.99,Homeseer,2013-04-02 01:49:00,
2013-04-01 21:54:00,36.4,19.4,29.45,North,-999,-999.0,-999.0,37,-99.99,,,-99.99,Homeseer,2013-04-02 01:54:00,
2013-04-01 21:59:00,36.1,19.5,29.45,North,-999,-999.0,-999.0,38,-99.99,,,-99.99,Homeseer,2013-04-02 01:59:00,
2013-04-01 22:04:00,36.1,18.7,29.45,North,-999,-999.0,-999.0,36,-99.99,,,-99.99,Homeseer,2013-04-02 02:04:00,
2013-04-01 22:09:00,35.9,19.4,29.46,North,-999,-999.0,-999.0,38,-99.99,,,-99.99,Homeseer,2013-04-02 02:09:00,
2013-04-01 22:14:00,36.1,20.0,29.46,North,-999,-999.0,-999.0,39,-99.99,,,-99.99,Homeseer,2013-04-02 02:14:00,
2013-04-01 22:19:00,35.9,20.2,29.46,North,-999,-999.0,-999.0,40,-99.99,,,-99.99,Homeseer,2013-04-02 02:19:00,
2013-04-01 22:24:00,35.6,20.3,29.47,North,-999,-999.0,-999.0,41,-99.99,,,-99.99,Homeseer,2013-04-02 02:24:00,
2013-04-01 22:29:00,35.6,20.3,29.47,North,-999,-999.0,-999.0,41,-99.99,,,-99.99,Homeseer,2013-04-02 02:29:00,
2013-04-01 22:34:00,35.5,19.8,29.47,North,-999,-999.0,-999.0,40,-99.99,,,-99.99,Homeseer,2013-04-02 02:34:00,
2013-04-01 22:39:00,35.1,20.3,29.48,North,-999,-999.0,-999.0,42,-99.99,,,-99.99,Homeseer,2013-04-02 02:39:00,
2013-04-01 22:44:00,35.0,19.8,29.48,North,-999,-999.0,-999.0,41,-99.99,,,-99.99,Homeseer,2013-04-02 02:44:00,
2013-04-01 22:50:00,35.2,20.4,29.48,North,-999,-999.0,-999.0,42,-99.99,,,-99.99,Homeseer,2013-04-02 02:50:00,
2013-04-01 22:55:00,35.2,20.0,29.48,North,-999,-999.0,-999.0,41,-99.99,,,-99.99,Homeseer,2013-04-02 02:55:00,
2013-04-01 23:00:00,34.7,20.3,29.48,North,-999,-999.0,-999.0,43,-99.99,,,-99.99,Homeseer,2013-04-02 03:00:00,
2013-04-01 23:05:00,34.5,19.7,29.49,North,-999,-999.0,-999.0,42,-99.99,,,-99.99,Homeseer,2013-04-02 03:05:00,
2013-04-01 23:10:00,34.6,19.8,29.49,North,-999,-999.0,-999.0,42,-99.99,,,-99.99,Homeseer,2013-04-02 03:10:00,
2013-04-01 23:15:00,34.3,19.9,29.49,North,-999,-999.0,-999.0,43,-99.99,,,-99.99,Homeseer,2013-04-02 03:15:00,
2013-04-01 23:20:00,34.4,20.4,29.49,North,-999,-999.0,-999.0,44,-99.99,,,-99.99,Homeseer,2013-04-02 03:20:00,
2013-04-01 23:25:00,34.1,20.5,29.49,North,-999,-999.0,-999.0,45,-99.99,,,-99.99,Homeseer,2013-04-02 03:25:00,
2013-04-01 23:30:00,34.2,20.2,29.49,North,-999,-999.0,-999.0,44,-99.99,,,-99.99,Homeseer,2013-04-02 03:30:00,
2013-04-01 23:35:00,34.1,20.5,29.49,North,-999,-999.0,-999.0,45,-99.99,,,-99.99,Homeseer,2013-04-02 03:35:00,
2013-04-01 23:40:00,34.0,20.0,29.50,North,-999,-999.0,-999.0,44,-99.99,,,-99.99,Homeseer,2013-04-02 03:40:00,
2013-04-01 23:45:00,33.7,20.1,29.51,North,-999,-999.0,-999.0,45,-99.99,,,-99.99,Homeseer,2013-04-02 03:45:00,
2013-04-01 23:50:00,33.7,19.8,29.51,North,-999,-999.0,-999.0,44,-99.99,,,-99.99,Homeseer,2013-04-02 03:50:00,
2013-04-01 23:55:00,34.0,20.4,29.51,North,-999,-999.0,-999.0,45,-99.99,,,-99.99,Homeseer,2013-04-02 03:55:00,